createdAt,value
2018-08-16T00:00:34.419Z,11.50
2018-08-16T00:03:02.512Z,10.67
2018-08-16T00:05:30.577Z,11.13
2018-08-16T00:07:58.675Z,10.40
2018-08-16T00:10:26.757Z,10.57
2018-08-16T00:12:54.788Z,12.13
2018-08-16T00:15:23.259Z,11.77
2018-08-16T00:17:51.344Z,10.87
2018-08-16T00:20:19.363Z,11.60
2018-08-16T00:22:47.781Z,10.90
2018-08-16T00:25:16.356Z,10.90
2018-08-16T00:27:44.423Z,10.30
2018-08-16T00:30:14.768Z,10.87
2018-08-16T00:32:43.267Z,10.30
2018-08-16T00:35:11.408Z,10.67
2018-08-16T00:37:39.475Z,9.87
2018-08-16T00:40:13.098Z,10.33
2018-08-16T00:42:41.235Z,11.07
2018-08-16T00:45:10.354Z,11.20
2018-08-16T00:47:38.551Z,11.60
2018-08-16T00:50:10.703Z,10.07
2018-08-16T00:52:38.760Z,10.27
2018-08-16T00:55:07.785Z,10.80
2018-08-16T00:57:36.244Z,10.77
2018-08-16T01:00:05.443Z,10.10
2018-08-16T01:02:33.539Z,11.17
2018-08-16T01:05:01.613Z,11.27
2018-08-16T01:07:29.692Z,10.53
2018-08-16T01:09:57.786Z,9.77
2018-08-16T01:12:26.071Z,10.50
2018-08-16T01:14:54.170Z,10.40
2018-08-16T01:17:22.256Z,10.53
2018-08-16T01:19:50.400Z,12.10
2018-08-16T01:22:18.455Z,11.27
2018-08-16T01:24:46.529Z,10.90
2018-08-16T01:27:14.632Z,10.80
2018-08-16T01:29:42.705Z,10.13
2018-08-16T01:32:10.787Z,11.10
2018-08-16T01:34:38.897Z,10.00
2018-08-16T01:37:07.001Z,10.67
2018-08-16T01:39:35.088Z,10.53
2018-08-16T01:42:03.336Z,10.77
2018-08-16T01:44:31.428Z,11.50
2018-08-16T01:46:59.449Z,10.63
2018-08-16T01:49:34.539Z,9.50
2018-08-16T01:52:02.619Z,11.17
2018-08-16T01:54:31.050Z,11.07
2018-08-16T01:56:59.949Z,9.90
2018-08-16T01:59:28.050Z,9.67
2018-08-16T02:01:56.152Z,10.60
2018-08-16T02:04:24.212Z,10.20
2018-08-16T02:06:52.675Z,10.73
2018-08-16T02:09:21.616Z,10.17
2018-08-16T02:11:49.771Z,10.90
2018-08-16T02:14:18.289Z,11.00
2018-08-16T02:16:55.769Z,10.30
2018-08-16T02:19:24.526Z,10.63
2018-08-16T02:21:53.028Z,11.13
2018-08-16T02:24:21.572Z,10.63
2018-08-16T02:26:50.208Z,10.43
2018-08-16T02:29:18.751Z,11.60
2018-08-16T02:31:47.205Z,9.60
2018-08-16T02:34:15.506Z,11.00
2018-08-16T02:36:43.988Z,10.80
2018-08-16T02:39:12.304Z,9.97
2018-08-16T02:41:40.706Z,9.70
2018-08-16T02:44:09.353Z,10.30
2018-08-16T02:46:38.007Z,10.90
2018-08-16T02:49:06.380Z,10.57
2018-08-16T02:51:35.236Z,9.50
2018-08-16T02:54:03.508Z,9.93
2018-08-16T02:56:32.105Z,9.97
2018-08-16T03:01:37.727Z,10.63
2018-08-16T03:04:06.272Z,10.00
2018-08-16T03:06:34.300Z,9.90
2018-08-16T03:09:02.401Z,9.57
2018-08-16T03:11:30.511Z,10.30
2018-08-16T03:13:58.628Z,10.33
2018-08-16T03:16:27.087Z,9.77
2018-08-16T03:18:55.103Z,10.00
2018-08-16T03:21:23.193Z,10.20
2018-08-16T03:23:51.252Z,9.50
2018-08-16T03:26:19.315Z,10.47
2018-08-16T03:28:47.527Z,10.27
2018-08-16T03:31:15.670Z,10.07
2018-08-16T03:33:44.294Z,10.00
2018-08-16T03:36:12.364Z,9.97
2018-08-16T03:38:40.459Z,10.20
2018-08-16T03:41:08.528Z,10.60
2018-08-16T03:43:36.641Z,10.47
2018-08-16T03:46:04.782Z,10.30
2018-08-16T03:48:32.844Z,11.00
2018-08-16T03:51:01.035Z,10.57
2018-08-16T03:53:29.593Z,10.87
2018-08-16T03:55:57.994Z,10.53
2018-08-16T03:58:26.141Z,10.43
2018-08-16T04:00:54.194Z,10.03
2018-08-16T04:03:22.342Z,11.67
2018-08-16T04:05:50.467Z,10.90
2018-08-16T04:08:18.540Z,11.13
2018-08-16T04:10:46.656Z,10.83
2018-08-16T04:13:14.856Z,9.80
2018-08-16T04:15:42.940Z,10.73
2018-08-16T04:18:11.452Z,10.60
2018-08-16T04:20:39.689Z,11.33
2018-08-16T04:23:07.847Z,11.40
2018-08-16T04:25:35.930Z,10.37
2018-08-16T04:28:04.268Z,11.13
2018-08-16T04:30:32.419Z,11.73
2018-08-16T04:33:00.521Z,11.63
2018-08-16T04:35:28.764Z,10.80
2018-08-16T04:37:56.816Z,10.30
2018-08-16T04:40:24.942Z,10.27
2018-08-16T04:42:53.294Z,10.80
2018-08-16T04:45:21.488Z,11.67
2018-08-16T04:47:49.614Z,12.17
2018-08-16T04:50:17.942Z,10.80
2018-08-16T04:52:46.045Z,11.57
2018-08-16T04:55:14.094Z,10.07
2018-08-16T04:57:42.114Z,10.33
2018-08-16T05:00:11.986Z,10.90
2018-08-16T05:02:40.252Z,10.60
2018-08-16T05:05:08.874Z,10.53
2018-08-16T05:07:37.105Z,10.70
2018-08-16T05:10:06.333Z,10.30
2018-08-16T05:12:34.405Z,11.87
2018-08-16T05:15:02.514Z,12.13
2018-08-16T05:17:30.598Z,11.97
2018-08-16T05:19:58.709Z,11.73
2018-08-16T05:22:26.779Z,11.53
2018-08-16T05:24:54.886Z,11.20
2018-08-16T05:27:22.976Z,11.27
2018-08-16T05:29:51.090Z,11.57
2018-08-16T05:32:19.164Z,11.17
2018-08-16T05:34:47.270Z,10.83
2018-08-16T05:37:15.344Z,11.03
2018-08-16T05:39:43.370Z,12.40
2018-08-16T05:42:11.481Z,11.73
2018-08-16T05:44:39.592Z,11.93
2018-08-16T05:47:07.744Z,12.00
2018-08-16T05:49:35.778Z,12.90
2018-08-16T05:52:04.033Z,13.30
2018-08-16T05:54:32.104Z,13.40
2018-08-16T05:57:00.192Z,12.23
2018-08-16T05:59:28.338Z,13.40
2018-08-16T06:01:56.417Z,13.10
2018-08-16T06:04:24.512Z,12.97
2018-08-16T06:06:52.681Z,12.30
2018-08-16T06:09:20.770Z,12.60
2018-08-16T06:11:48.816Z,12.50
2018-08-16T06:14:16.891Z,12.30
2018-08-16T06:16:45.051Z,12.77
2018-08-16T06:19:13.091Z,13.73
2018-08-16T06:21:41.232Z,13.40
2018-08-16T06:24:09.435Z,12.80
2018-08-16T06:26:37.489Z,13.90
2018-08-16T06:29:05.547Z,13.70
2018-08-16T06:31:33.627Z,14.73
2018-08-16T06:34:01.688Z,14.67
2018-08-16T06:36:29.744Z,13.60
2018-08-16T06:38:57.945Z,14.93
2018-08-16T06:41:26.001Z,15.40
2018-08-16T06:43:54.061Z,14.20
2018-08-16T06:46:22.266Z,14.73
2018-08-16T06:48:50.256Z,14.97
2018-08-16T06:51:18.336Z,14.73
2018-08-16T06:53:46.444Z,14.80
2018-08-16T06:56:14.540Z,15.93
2018-08-16T06:58:42.617Z,17.00
2018-08-16T07:01:10.929Z,15.33
2018-08-16T07:03:39.076Z,14.90
2018-08-16T07:06:07.161Z,15.47
2018-08-16T07:08:35.243Z,18.93
2018-08-16T07:11:03.373Z,16.20
2018-08-16T07:13:31.508Z,16.20
2018-08-16T07:15:59.606Z,17.03
2018-08-16T07:18:27.644Z,16.80
2018-08-16T07:20:55.704Z,16.77
2018-08-16T07:23:23.855Z,15.90
2018-08-16T07:25:52.098Z,16.57
2018-08-16T07:28:20.273Z,16.33
2018-08-16T07:30:48.315Z,16.70
2018-08-16T07:33:16.408Z,16.40
2018-08-16T07:35:44.550Z,15.90
2018-08-16T07:38:12.637Z,15.30
2018-08-16T07:40:40.708Z,15.80
2018-08-16T07:43:08.904Z,16.50
2018-08-16T07:45:37.406Z,16.50
2018-08-16T07:48:05.911Z,15.30
2018-08-16T07:50:34.035Z,17.43
2018-08-16T07:53:02.122Z,15.90
2018-08-16T07:55:30.196Z,15.63
2018-08-16T07:57:58.331Z,15.57
2018-08-16T08:00:26.445Z,16.17
2018-08-16T08:02:54.513Z,16.20
2018-08-16T08:05:22.618Z,16.60
2018-08-16T08:07:50.756Z,15.53
2018-08-16T08:10:18.865Z,15.27
2018-08-16T08:12:46.968Z,15.60
2018-08-16T08:15:17.523Z,16.13
2018-08-16T08:17:45.680Z,15.50
2018-08-16T08:20:14.920Z,15.07
2018-08-16T08:22:43.413Z,16.83
2018-08-16T08:25:12.333Z,16.30
2018-08-16T08:27:40.363Z,15.60
2018-08-16T08:30:11.414Z,16.70
2018-08-16T08:32:39.800Z,15.60
2018-08-16T08:35:07.902Z,16.00
2018-08-16T08:37:47.670Z,16.07
2018-08-16T08:40:16.225Z,15.97
2018-08-16T08:42:44.564Z,15.67
2018-08-16T08:45:12.603Z,16.30
2018-08-16T08:47:46.797Z,15.60
2018-08-16T08:50:14.910Z,15.30
2018-08-16T08:52:42.953Z,15.30
2018-08-16T08:55:22.572Z,16.87
2018-08-16T08:58:02.269Z,16.30
2018-08-16T09:00:30.389Z,15.33
2018-08-16T09:02:58.428Z,16.90
2018-08-16T09:05:26.477Z,16.60
2018-08-16T09:07:54.601Z,15.97
2018-08-16T09:11:15.194Z,15.47
2018-08-16T09:13:56.036Z,15.93
2018-08-16T09:16:28.125Z,15.30
2018-08-16T09:18:56.566Z,14.97
2018-08-16T09:21:24.756Z,15.40
2018-08-16T09:23:53.022Z,15.40
2018-08-16T09:26:26.700Z,13.90
2018-08-16T09:28:54.914Z,14.77
2018-08-16T09:31:34.814Z,15.03
2018-08-16T09:34:14.147Z,15.00
2018-08-16T09:36:42.223Z,14.13
2018-08-16T09:39:10.554Z,14.00
2018-08-16T09:41:39.018Z,15.10
2018-08-16T09:44:07.234Z,14.80
2018-08-16T09:47:01.376Z,15.07
2018-08-16T09:49:30.888Z,15.70
2018-08-16T09:51:59.064Z,15.00
2018-08-16T09:54:27.243Z,14.80
2018-08-16T09:56:56.278Z,15.80
2018-08-16T09:59:24.367Z,15.57
2018-08-16T10:01:52.653Z,16.90
2018-08-16T10:04:20.892Z,15.73
2018-08-16T10:06:49.006Z,16.00
2018-08-16T10:09:19.536Z,15.40
2018-08-16T10:11:48.135Z,16.03
2018-08-16T10:14:16.577Z,17.07
2018-08-16T10:16:44.698Z,15.90
2018-08-16T10:19:12.760Z,15.60
2018-08-16T10:21:40.866Z,15.20
2018-08-16T10:24:08.930Z,15.57
2018-08-16T10:27:40.552Z,15.10
2018-08-16T10:30:09.293Z,15.30
2018-08-16T10:32:37.397Z,16.53
2018-08-16T10:35:05.590Z,15.50
2018-08-16T10:37:33.671Z,15.00
2018-08-16T10:40:01.786Z,14.57
2018-08-16T10:42:30.031Z,15.57
2018-08-16T10:44:58.114Z,15.10
2018-08-16T10:47:26.303Z,14.20
2018-08-16T10:49:54.326Z,14.87
2018-08-16T10:52:22.365Z,14.20
2018-08-16T10:54:50.440Z,13.77
2018-08-16T10:57:18.516Z,13.43
2018-08-16T10:59:46.625Z,15.03
2018-08-16T11:02:14.709Z,15.50
2018-08-16T11:04:42.777Z,14.37
2018-08-16T11:07:10.836Z,15.10
2018-08-16T11:09:39.009Z,13.90
2018-08-16T11:12:07.046Z,14.30
2018-08-16T11:14:35.095Z,13.87
2018-08-16T11:17:03.190Z,13.37
2018-08-16T11:19:31.302Z,13.37
2018-08-16T11:21:59.402Z,14.10
2018-08-16T11:24:27.442Z,14.50
2018-08-16T11:26:55.520Z,14.13
2018-08-16T11:29:23.935Z,13.30
2018-08-16T11:31:52.193Z,16.77
2018-08-16T11:34:20.283Z,13.93
2018-08-16T11:36:48.398Z,14.77
2018-08-16T11:39:16.506Z,13.67
2018-08-16T11:41:44.609Z,12.80
2018-08-16T11:44:12.705Z,13.80
2018-08-16T11:46:40.892Z,13.53
2018-08-16T11:49:08.959Z,15.07
2018-08-16T11:51:37.017Z,14.37
2018-08-16T11:54:05.116Z,14.27
2018-08-16T11:56:33.223Z,14.27
2018-08-16T11:59:01.269Z,14.73
2018-08-16T12:01:29.372Z,14.30
2018-08-16T12:03:57.440Z,14.70
2018-08-16T12:06:25.622Z,13.83
2018-08-16T12:08:53.615Z,14.00
2018-08-16T12:11:21.721Z,13.30
2018-08-16T12:13:49.941Z,12.67
2018-08-16T12:16:18.009Z,12.90
2018-08-16T12:18:46.080Z,13.10
2018-08-16T12:21:14.191Z,13.40
2018-08-16T12:23:42.277Z,13.47
2018-08-16T12:26:10.364Z,12.80
2018-08-16T12:28:38.473Z,13.10
2018-08-16T12:31:06.574Z,12.90
2018-08-16T12:33:34.611Z,12.17
2018-08-16T12:36:02.678Z,13.10
2018-08-16T12:38:30.788Z,12.47
2018-08-16T12:40:58.875Z,12.57
2018-08-16T12:43:32.345Z,13.10
2018-08-16T12:46:00.420Z,13.50
2018-08-16T12:48:28.593Z,12.60
2018-08-16T12:50:56.602Z,13.10
2018-08-16T12:53:24.715Z,13.10
2018-08-16T12:55:52.763Z,13.50
2018-08-16T12:58:20.876Z,13.60
2018-08-16T13:00:48.909Z,12.80
2018-08-16T13:03:16.935Z,12.93
2018-08-16T13:05:45.016Z,16.20
2018-08-16T13:08:13.116Z,14.00
2018-08-16T13:10:41.217Z,14.27
2018-08-16T13:13:09.279Z,13.87
2018-08-16T13:15:37.392Z,13.87
2018-08-16T13:18:05.640Z,13.93
2018-08-16T13:20:33.703Z,13.80
2018-08-16T13:23:01.769Z,13.47
2018-08-16T13:25:30.082Z,14.37
2018-08-16T13:27:58.110Z,13.80
2018-08-16T13:30:26.222Z,13.80
2018-08-16T13:32:54.357Z,13.73
2018-08-16T13:35:22.428Z,14.13
2018-08-16T13:37:50.524Z,14.03
2018-08-16T13:40:18.615Z,13.70
2018-08-16T13:42:46.693Z,13.83
2018-08-16T13:45:15.460Z,15.13
2018-08-16T13:47:43.655Z,13.90
2018-08-16T13:50:11.800Z,14.90
2018-08-16T13:52:40.236Z,14.30
2018-08-16T13:55:08.486Z,14.77
2018-08-16T13:57:36.499Z,14.60
2018-08-16T14:00:05.649Z,15.40
2018-08-16T14:02:33.716Z,16.60
2018-08-16T14:05:01.853Z,14.93
2018-08-16T14:07:29.930Z,16.20
2018-08-16T14:09:58.154Z,13.87
2018-08-16T14:12:26.357Z,15.00
2018-08-16T14:14:54.502Z,13.60
2018-08-16T14:17:22.547Z,13.90
2018-08-16T14:19:50.631Z,14.73
2018-08-16T14:22:18.635Z,14.00
2018-08-16T14:31:49.698Z,14.83
2018-08-16T14:34:17.755Z,15.23
2018-08-16T14:36:45.810Z,14.23
2018-08-16T14:39:13.885Z,14.40
2018-08-16T14:41:42.360Z,15.17
2018-08-16T14:44:10.463Z,14.70
2018-08-16T14:46:38.537Z,15.10
2018-08-16T14:49:06.591Z,15.03
2018-08-16T14:51:34.738Z,14.80
2018-08-16T14:54:02.825Z,15.17
2018-08-16T14:56:30.855Z,14.20
2018-08-16T14:58:58.966Z,14.67
2018-08-16T15:01:27.054Z,14.50
2018-08-16T15:03:55.231Z,14.10
2018-08-16T15:06:23.340Z,20.77
2018-08-16T15:08:51.436Z,16.47
2018-08-16T15:11:19.483Z,23.37
2018-08-16T15:13:47.553Z,15.40
2018-08-16T15:16:15.644Z,14.90
2018-08-16T15:18:43.766Z,15.33
2018-08-16T15:21:11.873Z,15.30
2018-08-16T15:23:40.001Z,14.97
2018-08-16T15:26:08.332Z,15.13
2018-08-16T15:28:36.400Z,16.13
2018-08-16T15:31:04.502Z,15.97
2018-08-16T15:33:32.709Z,14.40
2018-08-16T15:36:00.788Z,15.67
2018-08-16T15:38:28.986Z,14.70
2018-08-16T15:40:57.066Z,15.40
2018-08-16T15:43:25.169Z,14.47
2018-08-16T15:45:53.190Z,16.33
2018-08-16T15:48:21.281Z,14.83
2018-08-16T15:50:49.401Z,14.60
2018-08-16T15:53:17.460Z,14.50
2018-08-16T15:55:45.547Z,14.70
2018-08-16T15:58:13.627Z,15.20
2018-08-16T16:00:41.672Z,15.27
2018-08-16T16:03:09.770Z,15.50
2018-08-16T16:05:37.913Z,15.23
2018-08-16T16:08:05.874Z,14.60
2018-08-16T16:10:34.099Z,14.60
2018-08-16T16:13:02.350Z,15.93
2018-08-16T16:15:30.437Z,15.97
2018-08-16T16:17:58.622Z,15.70
2018-08-16T16:20:26.996Z,15.37
2018-08-16T16:22:55.096Z,15.30
2018-08-16T16:25:23.161Z,16.50
2018-08-16T16:27:51.276Z,16.20
2018-08-16T16:30:19.353Z,15.53
2018-08-16T16:32:47.437Z,15.37
2018-08-16T16:35:15.549Z,15.87
2018-08-16T16:37:43.611Z,15.53
2018-08-16T16:40:11.813Z,16.50
2018-08-16T16:42:40.461Z,15.70
2018-08-16T16:45:09.097Z,15.77
2018-08-16T16:47:37.239Z,17.47
2018-08-16T16:50:06.163Z,16.27
2018-08-16T16:52:34.206Z,15.57
2018-08-16T16:55:02.264Z,16.60
2018-08-16T16:57:30.339Z,16.20
2018-08-16T16:59:58.371Z,16.30
2018-08-16T17:02:26.423Z,16.60
2018-08-16T17:04:54.566Z,15.53
2018-08-16T17:07:22.727Z,16.40
2018-08-16T17:09:50.813Z,15.77
2018-08-16T17:12:18.949Z,15.57
2018-08-16T17:14:47.035Z,16.20
2018-08-16T17:17:15.110Z,16.73
2018-08-16T17:19:43.242Z,16.10
2018-08-16T17:22:11.336Z,16.53
2018-08-16T17:24:39.419Z,18.30
2018-08-16T17:27:07.492Z,17.10
2018-08-16T17:29:35.556Z,16.50
2018-08-16T17:32:03.775Z,16.50
2018-08-16T17:34:31.845Z,16.70
2018-08-16T17:36:59.959Z,16.03
2018-08-16T17:39:28.044Z,16.17
2018-08-16T17:41:56.112Z,15.83
2018-08-16T17:44:24.224Z,16.50
2018-08-16T17:46:52.491Z,17.10
2018-08-16T17:49:20.759Z,16.23
2018-08-16T17:51:48.828Z,17.30
2018-08-16T17:54:16.973Z,17.57
2018-08-16T17:56:45.180Z,17.70
2018-08-16T17:59:13.278Z,16.97
2018-08-16T18:01:41.402Z,17.10
2018-08-16T18:04:09.606Z,16.70
2018-08-16T18:06:37.741Z,17.00
2018-08-16T18:09:07.137Z,17.17
2018-08-16T18:11:35.200Z,17.23
2018-08-16T18:14:04.912Z,18.17
2018-08-16T18:16:33.070Z,17.90
2018-08-16T18:19:01.098Z,17.63
2018-08-16T18:21:29.218Z,16.43
2018-08-16T18:23:57.290Z,14.90
2018-08-16T18:26:25.398Z,15.97
2018-08-16T18:28:53.473Z,14.50
2018-08-16T18:31:21.616Z,15.40
2018-08-16T18:33:49.741Z,15.30
2018-08-16T18:36:17.828Z,15.97
2018-08-16T18:38:45.892Z,15.70
2018-08-16T18:41:14.274Z,16.37
2018-08-16T18:43:42.386Z,16.00
2018-08-16T18:46:10.467Z,16.77
2018-08-16T18:48:38.557Z,14.93
2018-08-16T18:51:06.643Z,15.53
2018-08-16T18:53:34.785Z,16.53
2018-08-16T18:56:02.864Z,16.00
2018-08-16T18:58:30.936Z,15.97
2018-08-16T19:00:58.971Z,16.40
2018-08-16T19:06:17.584Z,15.60
2018-08-16T19:08:45.633Z,16.90
2018-08-16T19:11:13.757Z,16.60
2018-08-16T19:13:41.858Z,17.93
2018-08-16T19:16:10.027Z,18.10
2018-08-16T19:18:38.161Z,17.37
2018-08-16T19:21:06.274Z,17.10
2018-08-16T19:23:34.345Z,19.27
2018-08-16T19:26:02.453Z,17.67
2018-08-16T19:28:30.536Z,17.00
2018-08-16T19:30:58.768Z,16.77
2018-08-16T19:33:26.873Z,16.57
2018-08-16T19:35:54.940Z,16.80
2018-08-16T19:38:23.090Z,17.37
2018-08-16T19:40:51.289Z,16.93
2018-08-16T19:43:19.382Z,16.63
2018-08-16T19:45:47.506Z,16.87
2018-08-16T19:48:15.661Z,16.73
2018-08-16T19:50:43.651Z,16.80
2018-08-16T19:53:11.810Z,16.20
2018-08-16T19:55:39.934Z,16.90
2018-08-16T19:58:08.150Z,16.60
2018-08-16T20:00:36.193Z,16.30
2018-08-16T20:03:04.298Z,16.17
2018-08-16T20:05:32.362Z,16.00
2018-08-16T20:08:00.436Z,15.80
2018-08-16T20:10:28.613Z,16.83
2018-08-16T20:12:56.663Z,15.80
2018-08-16T20:15:24.753Z,16.30
2018-08-16T20:17:52.857Z,15.60
2018-08-16T20:20:20.974Z,16.67
2018-08-16T20:22:49.100Z,16.30
2018-08-16T20:25:17.162Z,15.90
2018-08-16T20:27:45.270Z,17.17
2018-08-16T20:30:13.489Z,15.50
2018-08-16T20:32:41.550Z,17.00
2018-08-16T20:35:09.656Z,16.80
2018-08-16T20:37:37.976Z,16.80
2018-08-16T20:40:06.223Z,17.00
2018-08-16T20:42:34.355Z,17.57
2018-08-16T20:45:02.453Z,16.43
2018-08-16T20:47:32.306Z,16.40
2018-08-16T20:50:00.429Z,15.57
2018-08-16T20:52:28.524Z,17.97
2018-08-16T20:54:56.675Z,16.30
2018-08-16T20:57:24.853Z,16.60
2018-08-16T20:59:52.935Z,17.43
2018-08-16T21:02:21.016Z,17.20
2018-08-16T21:04:49.117Z,16.80
2018-08-16T21:07:17.239Z,16.43
2018-08-16T21:09:45.312Z,17.10
2018-08-16T21:12:13.422Z,17.30
2018-08-16T21:14:41.534Z,15.60
2018-08-16T21:17:09.735Z,16.90
2018-08-16T21:19:37.826Z,16.97
2018-08-16T21:22:06.206Z,17.47
2018-08-16T21:24:34.266Z,18.27
2018-08-16T21:27:02.305Z,17.63
2018-08-16T21:29:30.383Z,17.53
2018-08-16T21:31:58.451Z,15.70
2018-08-16T21:34:26.541Z,16.13
2018-08-16T21:36:54.580Z,15.57
2018-08-16T21:39:22.901Z,16.80
2018-08-16T21:41:51.023Z,16.13
2018-08-16T21:44:19.135Z,17.13
2018-08-16T21:46:47.268Z,18.60
2018-08-16T21:49:15.412Z,17.70
2018-08-16T21:51:43.519Z,17.13
2018-08-16T21:54:11.625Z,18.53
2018-08-16T21:56:39.713Z,15.77
2018-08-16T21:59:07.982Z,16.33
2018-08-16T22:01:36.113Z,16.60
2018-08-16T22:04:04.220Z,16.57
2018-08-16T22:06:43.812Z,15.20
2018-08-16T22:09:13.600Z,15.37
2018-08-16T22:11:41.679Z,15.50
2018-08-16T22:14:09.770Z,14.83
2018-08-16T22:16:37.901Z,16.37
2018-08-16T22:19:05.971Z,16.37
2018-08-16T22:21:34.053Z,16.73
2018-08-16T22:24:02.150Z,15.60
2018-08-16T22:26:30.199Z,15.80
2018-08-16T22:28:58.255Z,15.93
2018-08-16T22:31:26.322Z,16.63
2018-08-16T22:33:54.379Z,15.73
2018-08-16T22:36:22.432Z,16.57
2018-08-16T22:38:50.524Z,15.60
2018-08-16T22:41:18.593Z,16.50
2018-08-16T22:43:46.839Z,15.30
2018-08-16T22:46:14.892Z,16.00
2018-08-16T22:48:42.944Z,16.00
2018-08-16T22:51:11.033Z,16.30
2018-08-16T22:53:39.149Z,16.03
2018-08-16T22:56:07.213Z,16.00
2018-08-16T22:58:35.309Z,16.40
2018-08-16T23:01:03.438Z,16.43
2018-08-16T23:03:31.554Z,16.03
2018-08-16T23:05:59.623Z,16.47
2018-08-16T23:08:27.719Z,16.60
2018-08-16T23:10:55.824Z,16.23
2018-08-16T23:13:23.909Z,16.70
2018-08-16T23:15:52.009Z,16.90
2018-08-16T23:18:20.047Z,16.40
2018-08-16T23:20:48.137Z,16.63
2018-08-16T23:23:16.225Z,16.30
2018-08-16T23:25:44.334Z,16.03
2018-08-16T23:28:12.428Z,16.23
2018-08-16T23:30:40.450Z,16.80
2018-08-16T23:33:08.528Z,16.90
2018-08-16T23:35:36.593Z,16.87
2018-08-16T23:38:04.696Z,16.63
2018-08-16T23:40:32.779Z,16.43
2018-08-16T23:43:00.860Z,16.43
2018-08-16T23:45:28.991Z,16.53
2018-08-16T23:48:08.672Z,17.13
2018-08-16T23:50:36.782Z,16.60
2018-08-16T23:53:04.910Z,16.97
2018-08-16T23:55:33.073Z,16.70
2018-08-16T23:58:01.111Z,16.60
